createdAt,value
2018-08-16T00:01:42.066Z,15.10
2018-08-16T00:04:10.643Z,15.20
2018-08-16T00:06:39.241Z,15.20
2018-08-16T00:09:08.436Z,15.10
2018-08-16T00:11:37.322Z,15.00
2018-08-16T00:14:05.886Z,15.10
2018-08-16T00:16:34.499Z,15.00
2018-08-16T00:19:03.118Z,15.10
2018-08-16T00:21:31.698Z,15.10
2018-08-16T00:24:00.337Z,15.10
2018-08-16T00:26:28.958Z,15.00
2018-08-16T00:28:57.544Z,15.10
2018-08-16T00:31:26.157Z,15.00
2018-08-16T00:33:54.805Z,15.10
2018-08-16T00:36:23.355Z,15.00
2018-08-16T00:38:51.910Z,15.00
2018-08-16T00:41:20.477Z,14.90
2018-08-16T00:43:49.001Z,14.90
2018-08-16T00:46:17.615Z,14.80
2018-08-16T00:48:46.150Z,14.80
2018-08-16T00:51:14.713Z,14.90
2018-08-16T00:53:43.251Z,14.90
2018-08-16T00:56:11.877Z,14.80
2018-08-16T00:58:40.450Z,14.80
2018-08-16T01:01:09.038Z,14.70
2018-08-16T01:03:37.574Z,14.60
2018-08-16T01:06:06.149Z,14.60
2018-08-16T01:08:34.720Z,14.60
2018-08-16T05:30:21.400Z,14.00
2018-08-16T05:32:52.576Z,14.20
2018-08-16T05:35:22.961Z,14.20
2018-08-16T05:37:54.041Z,14.30
2018-08-16T05:40:23.837Z,14.30
2018-08-16T05:42:53.503Z,14.40
2018-08-16T05:45:22.442Z,14.40
2018-08-16T05:47:51.082Z,14.50
2018-08-16T05:50:19.641Z,14.50
2018-08-16T05:52:48.217Z,14.70
2018-08-16T05:55:20.484Z,14.90
2018-08-16T05:57:53.818Z,15.00
2018-08-16T06:00:22.387Z,15.10
2018-08-16T06:02:51.021Z,15.20
2018-08-16T06:05:19.573Z,15.30
2018-08-16T06:07:48.205Z,15.40
2018-08-16T06:10:16.873Z,15.50
2018-08-16T06:12:45.462Z,15.70
2018-08-16T06:15:14.038Z,15.80
2018-08-16T06:17:44.737Z,15.90
2018-08-16T06:20:15.395Z,15.80
2018-08-16T06:22:46.373Z,15.60
2018-08-16T06:25:14.949Z,15.50
2018-08-16T06:27:44.236Z,15.60
2018-08-16T06:30:15.950Z,15.80
2018-08-16T06:32:45.983Z,16.10
2018-08-16T06:35:15.244Z,16.30
2018-08-16T06:37:43.912Z,16.60
2018-08-16T06:40:15.172Z,16.80
2018-08-16T06:42:44.458Z,17.00
2018-08-16T06:45:13.074Z,17.20
2018-08-16T06:47:41.702Z,17.40
2018-08-16T06:50:10.398Z,17.60
2018-08-16T06:52:39.048Z,17.80
2018-08-16T06:55:09.633Z,18.10
2018-08-16T06:57:38.849Z,18.30
2018-08-16T07:00:10.026Z,18.50
2018-08-16T07:02:38.634Z,18.60
2018-08-16T07:05:12.005Z,18.70
2018-08-16T07:07:40.957Z,18.80
2018-08-16T07:10:14.230Z,18.90
2018-08-16T07:12:47.033Z,19.10
2018-08-16T07:15:16.316Z,19.30
2018-08-16T07:17:46.646Z,19.40
2018-08-16T07:20:15.276Z,19.60
2018-08-16T07:22:44.490Z,19.70
2018-08-16T07:25:13.018Z,19.90
2018-08-16T07:27:41.549Z,20.00
2018-08-16T07:30:10.586Z,20.10
2018-08-16T07:32:41.010Z,20.30
2018-08-16T07:35:10.396Z,20.40
2018-08-16T07:37:39.022Z,20.70
2018-08-16T07:40:08.342Z,20.70
2018-08-16T07:42:39.147Z,20.70
2018-08-16T07:45:09.874Z,20.80
2018-08-16T07:47:38.657Z,20.90
2018-08-16T07:50:10.493Z,21.10
2018-08-16T07:52:40.028Z,21.00
2018-08-16T07:55:09.263Z,21.10
2018-08-16T07:57:37.889Z,21.30
2018-08-16T08:00:11.440Z,21.50
2018-08-16T08:02:40.059Z,21.60
2018-08-16T08:05:08.662Z,21.60
2018-08-16T08:07:37.184Z,21.70
2018-08-16T08:10:05.817Z,21.80
2018-08-16T08:12:34.407Z,21.90
2018-08-16T08:15:03.046Z,22.00
2018-08-16T08:17:31.688Z,22.10
2018-08-16T08:20:00.302Z,22.20
2018-08-16T08:22:29.878Z,22.30
2018-08-16T08:25:00.040Z,22.40
2018-08-16T08:27:28.629Z,22.40
2018-08-16T08:29:57.325Z,22.50
2018-08-16T08:32:25.941Z,22.50
2018-08-16T08:34:54.660Z,22.60
2018-08-16T08:37:34.765Z,22.70
2018-08-16T08:40:03.371Z,22.70
2018-08-16T08:42:32.271Z,23.00
2018-08-16T08:45:00.866Z,23.10
2018-08-16T08:47:34.649Z,23.20
2018-08-16T08:50:03.256Z,23.10
2018-08-16T08:52:31.870Z,23.20
2018-08-16T08:55:11.642Z,23.40
2018-08-16T08:58:48.561Z,23.40
2018-08-16T09:01:19.152Z,23.40
2018-08-16T09:03:48.691Z,23.40
2018-08-16T09:06:17.221Z,23.50
2018-08-16T09:08:45.970Z,23.60
2018-08-16T09:11:26.054Z,23.50
2018-08-16T09:14:07.095Z,23.60
2018-08-16T09:16:37.771Z,23.60
2018-08-16T09:19:07.308Z,23.60
2018-08-16T09:21:36.373Z,23.70
2018-08-16T09:24:05.229Z,23.70
2018-08-16T09:26:38.926Z,23.80
2018-08-16T09:29:18.654Z,23.90
2018-08-16T09:32:03.093Z,24.00
2018-08-16T09:34:31.766Z,24.20
2018-08-16T09:37:00.349Z,24.30
2018-08-16T09:39:29.089Z,24.50
2018-08-16T09:41:57.578Z,24.60
2018-08-16T09:44:26.306Z,24.70
2018-08-16T09:47:10.857Z,24.70
2018-08-16T09:49:41.685Z,24.80
2018-08-16T09:52:11.523Z,24.90
2018-08-16T09:54:40.130Z,24.80
2018-08-16T09:57:09.902Z,24.90
2018-08-16T09:59:38.638Z,24.90
2018-08-16T10:02:11.488Z,25.10
2018-08-16T10:04:42.044Z,25.10
2018-08-16T10:07:12.665Z,25.00
2018-08-16T10:09:41.305Z,25.00
2018-08-16T10:12:09.923Z,25.10
2018-08-16T10:14:42.688Z,25.20
2018-08-16T10:17:13.189Z,25.40
2018-08-16T10:19:41.773Z,25.50
2018-08-16T10:22:10.349Z,25.60
2018-08-16T10:24:43.634Z,25.60
2018-08-16T10:27:15.506Z,25.60
2018-08-16T10:29:46.874Z,25.50
2018-08-16T10:32:15.894Z,25.60
2018-08-16T10:34:44.425Z,25.60
2018-08-16T10:37:14.193Z,25.50
2018-08-16T10:39:42.678Z,25.60
2018-08-16T10:42:11.233Z,25.70
2018-08-16T10:44:41.033Z,25.80
2018-08-16T10:47:11.218Z,25.80
2018-08-16T10:49:39.794Z,25.90
2018-08-16T10:52:08.458Z,26.10
2018-08-16T10:54:36.973Z,26.20
2018-08-16T10:57:05.899Z,26.30
2018-08-16T10:59:34.563Z,26.30
2018-08-16T11:02:03.169Z,26.40
2018-08-16T11:04:31.728Z,26.40
2018-08-16T11:07:00.501Z,26.40
2018-08-16T11:09:29.014Z,26.50
2018-08-16T11:11:57.564Z,26.50
2018-08-16T11:14:26.058Z,26.50
2018-08-16T11:16:54.590Z,26.40
2018-08-16T11:19:23.119Z,26.60
2018-08-16T11:21:51.670Z,26.60
2018-08-16T11:24:20.174Z,26.60
2018-08-16T11:26:48.729Z,26.60
2018-08-16T11:29:17.289Z,26.60
2018-08-16T11:31:45.873Z,26.50
2018-08-16T11:34:14.389Z,26.70
2018-08-16T11:36:42.953Z,26.60
2018-08-16T11:39:11.476Z,26.70
2018-08-16T11:41:40.015Z,26.80
2018-08-16T11:44:08.521Z,26.90
2018-08-16T11:46:37.143Z,26.90
2018-08-16T11:49:05.761Z,27.00
2018-08-16T11:51:34.321Z,27.10
2018-08-16T11:54:02.876Z,27.30
2018-08-16T11:56:31.459Z,27.30
2018-08-16T11:58:59.990Z,27.30
2018-08-16T12:01:28.550Z,27.30
2018-08-16T12:03:57.203Z,27.20
2018-08-16T12:06:25.797Z,27.20
2018-08-16T12:08:54.301Z,27.30
2018-08-16T12:11:22.848Z,27.30
2018-08-16T12:13:51.373Z,27.50
2018-08-16T12:16:19.938Z,27.50
2018-08-16T12:18:48.452Z,27.40
2018-08-16T12:21:16.986Z,27.40
2018-08-16T12:23:45.489Z,27.60
2018-08-16T12:26:14.022Z,27.60
2018-08-16T12:28:42.546Z,27.70
2018-08-16T12:31:11.130Z,27.60
2018-08-16T12:33:39.662Z,27.70
2018-08-16T12:36:08.197Z,27.90
2018-08-16T12:38:36.760Z,28.00
2018-08-16T12:41:05.609Z,28.00
2018-08-16T12:43:35.823Z,28.00
2018-08-16T12:46:04.503Z,27.90
2018-08-16T12:48:33.498Z,27.80
2018-08-16T12:51:02.053Z,27.80
2018-08-16T12:53:30.684Z,27.80
2018-08-16T12:55:59.178Z,27.70
2018-08-16T12:58:27.748Z,27.80
2018-08-16T13:00:56.300Z,27.80
2018-08-16T13:03:24.848Z,27.90
2018-08-16T13:05:53.356Z,28.00
2018-08-16T13:08:21.971Z,28.20
2018-08-16T13:10:50.517Z,28.30
2018-08-16T13:13:19.110Z,28.30
2018-08-16T13:15:47.637Z,28.20
2018-08-16T13:18:16.242Z,28.20
2018-08-16T13:20:44.750Z,28.30
2018-08-16T13:23:13.305Z,28.30
2018-08-16T13:25:41.854Z,28.20
2018-08-16T13:28:10.405Z,28.20
2018-08-16T13:30:38.934Z,28.10
2018-08-16T13:33:07.557Z,28.10
2018-08-16T13:35:36.070Z,28.20
2018-08-16T13:38:05.118Z,28.40
2018-08-16T13:40:33.637Z,28.40
2018-08-16T13:43:02.198Z,28.50
2018-08-16T13:45:30.713Z,28.40
2018-08-16T13:47:59.287Z,28.30
2018-08-16T13:50:27.822Z,28.40
2018-08-16T13:52:56.401Z,28.30
2018-08-16T13:55:24.948Z,28.30
2018-08-16T13:57:53.845Z,28.40
2018-08-16T14:00:22.356Z,28.50
2018-08-16T14:02:50.905Z,28.50
2018-08-16T14:05:19.448Z,28.50
2018-08-16T14:07:54.366Z,28.60
2018-08-16T14:10:23.065Z,28.60
2018-08-16T14:12:51.668Z,28.60
2018-08-16T14:15:20.176Z,28.60
2018-08-16T14:17:48.729Z,28.50
2018-08-16T14:20:17.287Z,28.50
2018-08-16T14:22:45.833Z,28.50
2018-08-16T14:25:14.341Z,28.40
2018-08-16T14:27:42.888Z,28.40
2018-08-16T14:30:11.437Z,28.30
2018-08-16T14:32:39.970Z,28.20
2018-08-16T14:35:08.494Z,28.20
2018-08-16T14:37:37.030Z,28.30
2018-08-16T14:40:05.921Z,28.40
2018-08-16T14:42:34.489Z,28.50
2018-08-16T14:45:04.227Z,28.40
2018-08-16T14:47:32.757Z,28.40
2018-08-16T14:50:01.292Z,28.30
2018-08-16T14:52:29.866Z,28.30
2018-08-16T14:54:58.477Z,28.50
2018-08-16T14:57:27.065Z,28.50
2018-08-16T14:59:55.584Z,28.60
2018-08-16T15:02:24.140Z,28.60
2018-08-16T15:04:52.655Z,28.60
2018-08-16T15:07:21.393Z,28.70
2018-08-16T15:09:49.910Z,28.80
2018-08-16T15:12:18.522Z,28.80
2018-08-16T15:14:47.762Z,28.80
2018-08-16T15:17:16.277Z,28.70
2018-08-16T15:19:44.823Z,28.60
2018-08-16T15:22:13.376Z,28.60
2018-08-16T15:24:42.590Z,28.60
2018-08-16T15:27:11.107Z,28.60
2018-08-16T15:29:39.640Z,28.60
2018-08-16T15:32:08.211Z,28.60
2018-08-16T15:34:36.737Z,28.60
2018-08-16T15:37:05.293Z,28.70
2018-08-16T15:39:33.868Z,28.70
2018-08-16T15:42:02.442Z,28.60
2018-08-16T15:44:31.014Z,28.50
2018-08-16T15:46:59.600Z,28.50
2018-08-16T15:49:29.699Z,28.50
2018-08-16T15:51:58.874Z,28.40
2018-08-16T15:54:28.300Z,28.40
2018-08-16T15:56:57.006Z,28.40
2018-08-16T15:59:25.639Z,28.40
2018-08-16T16:01:54.169Z,28.40
2018-08-16T16:04:22.725Z,28.40
2018-08-16T16:06:51.860Z,28.40
2018-08-16T16:09:20.425Z,28.40
2018-08-16T16:11:48.933Z,28.30
2018-08-16T16:14:17.491Z,28.30
2018-08-16T16:16:46.004Z,28.30
2018-08-16T16:19:14.559Z,28.20
2018-08-16T16:21:43.102Z,28.10
2018-08-16T16:24:11.641Z,28.00
2018-08-16T16:26:40.179Z,27.90
2018-08-16T16:29:08.722Z,27.90
2018-08-16T16:31:37.226Z,28.00
2018-08-16T16:34:05.854Z,27.90
2018-08-16T16:36:34.373Z,28.00
2018-08-16T16:39:03.026Z,28.00
2018-08-16T16:41:31.570Z,27.80
2018-08-16T16:44:00.113Z,27.70
2018-08-16T16:46:28.671Z,27.70
2018-08-16T16:48:57.217Z,27.70
2018-08-16T16:51:25.729Z,27.80
2018-08-16T16:53:54.292Z,27.90
2018-08-16T16:56:22.819Z,27.80
2018-08-16T16:58:51.585Z,27.60
2018-08-16T17:01:20.126Z,27.60
2018-08-16T17:03:48.845Z,27.40
2018-08-16T17:06:17.707Z,27.30
2018-08-16T17:08:46.282Z,27.40
2018-08-16T17:11:14.839Z,27.40
2018-08-16T17:13:43.381Z,27.50
2018-08-16T17:16:12.513Z,27.50
2018-08-16T17:18:41.097Z,27.40
2018-08-16T17:21:09.643Z,27.20
2018-08-16T17:23:38.196Z,27.10
2018-08-16T17:26:07.072Z,27.10
2018-08-16T17:28:35.606Z,27.10
2018-08-16T17:31:05.068Z,27.10
2018-08-16T17:33:33.624Z,27.20
2018-08-16T17:36:02.212Z,27.30
2018-08-16T17:38:30.757Z,27.20
2018-08-16T17:40:59.345Z,27.20
2018-08-16T17:43:27.821Z,27.10
2018-08-16T17:45:56.386Z,27.00
2018-08-16T17:48:24.891Z,26.90
2018-08-16T17:50:53.425Z,26.80
2018-08-16T17:53:22.150Z,26.60
2018-08-16T17:55:50.734Z,26.40
2018-08-16T17:58:19.282Z,26.30
2018-08-16T18:00:47.923Z,26.10
2018-08-16T18:03:16.425Z,26.00
2018-08-16T18:05:46.764Z,25.80
2018-08-16T18:08:15.298Z,25.70
2018-08-16T18:10:44.010Z,25.60
2018-08-16T18:13:12.518Z,25.60
2018-08-16T18:15:41.155Z,25.40
2018-08-16T18:18:09.684Z,25.10
2018-08-16T18:20:38.261Z,24.90
2018-08-16T18:23:06.773Z,24.70
2018-08-16T18:25:35.368Z,24.60
2018-08-16T18:28:04.021Z,24.60
2018-08-16T18:30:32.590Z,24.50
2018-08-16T18:33:01.140Z,24.40
2018-08-16T18:35:29.687Z,24.30
2018-08-16T18:37:58.229Z,24.10
2018-08-16T18:40:26.781Z,24.00
2018-08-16T18:42:55.290Z,23.80
2018-08-16T18:45:23.865Z,23.80
2018-08-16T18:47:52.470Z,23.80
2018-08-16T18:50:21.035Z,23.70
2018-08-16T18:52:49.569Z,23.50
2018-08-16T18:55:18.134Z,23.50
2018-08-16T18:57:46.669Z,23.30
2018-08-16T19:00:15.257Z,23.20
2018-08-16T19:02:43.801Z,23.20
2018-08-16T19:05:13.286Z,23.10
2018-08-16T19:07:41.777Z,22.90
2018-08-16T19:10:10.853Z,22.80
2018-08-16T19:12:39.509Z,22.70
2018-08-16T19:15:08.137Z,22.50
2018-08-16T19:17:36.665Z,22.50
2018-08-16T19:20:06.113Z,22.40
2018-08-16T19:22:34.669Z,22.40
2018-08-16T19:25:03.250Z,22.30
2018-08-16T19:27:31.837Z,22.20
2018-08-16T19:30:00.467Z,22.20
2018-08-16T19:32:28.938Z,22.10
2018-08-16T19:34:57.473Z,21.80
2018-08-16T19:37:25.981Z,21.80
2018-08-16T19:39:54.525Z,21.80
2018-08-16T19:42:23.021Z,21.70
2018-08-16T19:44:51.552Z,21.80
2018-08-16T19:47:20.070Z,21.60
2018-08-16T19:49:48.695Z,21.50
2018-08-16T19:52:17.199Z,21.40
2018-08-16T19:54:45.781Z,21.30
2018-08-16T19:57:14.574Z,21.30
2018-08-16T19:59:43.069Z,21.30
2018-08-16T20:02:11.842Z,21.30
2018-08-16T20:04:40.350Z,21.30
2018-08-16T20:07:08.991Z,21.30
2018-08-16T20:09:37.450Z,21.20
2018-08-16T20:12:06.030Z,21.20
2018-08-16T20:14:34.548Z,21.00
2018-08-16T20:17:03.183Z,20.90
2018-08-16T20:19:31.796Z,20.90
2018-08-16T20:22:00.401Z,20.80
2018-08-16T20:24:28.898Z,20.50
2018-08-16T20:26:57.456Z,20.30
2018-08-16T20:29:26.003Z,20.30
2018-08-16T20:31:54.565Z,20.30
2018-08-16T20:34:23.082Z,20.20
2018-08-16T20:36:53.625Z,20.20
2018-08-16T20:39:22.137Z,20.20
2018-08-16T20:41:50.707Z,20.20
2018-08-16T20:44:19.233Z,20.20
2018-08-16T20:46:47.782Z,20.20
2018-08-16T20:49:16.331Z,20.10
2018-08-16T20:51:44.918Z,20.00
2018-08-16T20:54:13.431Z,20.00
2018-08-16T20:56:41.978Z,19.90
2018-08-16T20:59:10.564Z,19.90
2018-08-16T21:01:39.133Z,20.10
2018-08-16T21:04:07.656Z,20.00
2018-08-16T21:06:36.290Z,19.90
2018-08-16T21:09:06.958Z,19.80
2018-08-16T21:11:35.681Z,19.70
2018-08-16T21:14:05.167Z,19.70
2018-08-16T21:16:33.712Z,19.60
2018-08-16T21:19:02.245Z,19.70
2018-08-16T21:21:30.943Z,19.60
2018-08-16T21:23:59.534Z,19.70
2018-08-16T21:26:28.765Z,19.70
2018-08-16T21:28:57.621Z,19.60
2018-08-16T21:31:26.223Z,19.50
2018-08-16T21:33:54.749Z,19.40
2018-08-16T21:36:23.306Z,19.30
2018-08-16T21:38:51.831Z,19.30
2018-08-16T21:41:20.383Z,19.30
2018-08-16T21:43:48.921Z,19.40
2018-08-16T21:46:17.481Z,19.30
2018-08-16T21:48:46.629Z,19.30
2018-08-16T21:51:15.201Z,19.40
2018-08-16T21:53:43.738Z,19.20
2018-08-16T21:56:12.329Z,19.10
2018-08-16T21:58:41.024Z,19.10
2018-08-16T22:01:09.654Z,19.00
2018-08-16T22:03:38.156Z,19.00
2018-08-16T22:06:07.923Z,19.10
2018-08-16T22:08:48.971Z,19.00
2018-08-16T22:11:17.556Z,19.00
2018-08-16T22:13:46.068Z,18.90
2018-08-16T22:16:14.625Z,19.00
2018-08-16T22:18:43.161Z,18.90
2018-08-16T22:21:12.136Z,18.90
2018-08-16T22:23:40.653Z,18.90
2018-08-16T22:26:10.200Z,18.80
2018-08-16T22:28:38.662Z,18.90
2018-08-16T22:31:07.201Z,18.80
2018-08-16T22:33:35.757Z,18.70
2018-08-16T22:36:04.265Z,18.70
2018-08-16T22:38:32.830Z,18.60
2018-08-16T22:41:01.339Z,18.60
2018-08-16T22:43:29.875Z,18.70
2018-08-16T22:45:58.441Z,18.70
2018-08-16T22:48:26.969Z,18.60
2018-08-16T22:50:55.466Z,18.60
2018-08-16T22:53:24.002Z,18.50
2018-08-16T22:55:52.546Z,18.40
2018-08-16T22:58:21.110Z,18.40
2018-08-16T23:00:49.709Z,18.30
2018-08-16T23:03:18.265Z,18.30
2018-08-16T23:05:46.767Z,18.30
2018-08-16T23:08:15.306Z,18.30
2018-08-16T23:10:43.841Z,18.40
2018-08-16T23:13:12.411Z,18.40
2018-08-16T23:15:40.952Z,18.40
2018-08-16T23:18:09.525Z,18.30
2018-08-16T23:20:38.052Z,18.30
2018-08-16T23:23:07.146Z,18.20
2018-08-16T23:25:35.690Z,18.20
2018-08-16T23:28:04.325Z,18.20
2018-08-16T23:30:32.822Z,18.30
2018-08-16T23:33:01.397Z,18.20
2018-08-16T23:35:29.987Z,18.00
2018-08-16T23:37:58.580Z,18.00
2018-08-16T23:40:27.086Z,18.00
2018-08-16T23:42:55.647Z,18.10
2018-08-16T23:45:24.178Z,18.20
2018-08-16T23:48:04.063Z,18.10
2018-08-16T23:50:32.573Z,18.10
2018-08-16T23:53:01.124Z,18.00
2018-08-16T23:55:29.632Z,18.00
2018-08-16T23:57:58.235Z,17.90
